Time;durP1;ratioP1;P1;durP2;ratioP2;P2;SDS_P1;SDS_P2;PMS_P1;PMS_P2;Temp;Humidity;BMP_temperature;BMP_pressure;BME280_temperature;BME280_humidity;BME280_pressure;Samples;Min_cycle;Max_cycle;Signal;HPM_P1;HPM_P2
2022/08/05 00:02:24;;;;;;;2.72;1.83;;;;;;;22.65;51.69;100323.97;5551459;32;34155;-67
2022/08/05 00:05:27;;;;;;;5.53;1.90;;;;;;;22.67;51.03;100329.91;5551472;32;33928;-67
2022/08/05 00:08:50;;;;;;;2.40;2.12;;;;;;;22.61;51.28;100324.72;5551327;32;34016;-67
2022/08/05 00:11:54;;;;;;;3.78;2.03;;;;;;;22.54;51.44;100330.28;5551450;32;34651;-67
2022/08/05 00:15:01;;;;;;;3.55;2.10;;;;;;;22.51;51.40;100325.37;5551449;32;35176;-67
2022/08/05 00:18:24;;;;;;;2.95;2.10;;;;;;;22.46;52.10;100328.00;5551566;32;33875;-67
2022/08/05 00:21:30;;;;;;;3.58;2.00;;;;;;;22.38;52.89;100323.81;5551484;32;34807;-66
2022/08/05 00:24:38;;;;;;;3.35;2.47;;;;;;;22.32;53.55;100327.47;5550673;32;34412;-67
2022/08/05 00:27:43;;;;;;;5.15;2.55;;;;;;;22.29;55.00;100319.88;5550381;32;33955;-67
2022/08/05 00:30:47;;;;;;;12.10;2.80;;;;;;;22.25;56.72;100317.91;5550558;32;34582;-67
2022/08/05 00:33:54;;;;;;;8.35;3.22;;;;;;;22.21;58.30;100322.19;5550534;32;34147;-68
2022/08/05 00:37:17;;;;;;;10.00;3.28;;;;;;;22.17;59.62;100326.44;5550273;32;33000;-68
2022/08/05 00:40:24;;;;;;;6.62;3.33;;;;;;;22.13;62.87;100325.25;5551248;32;34059;-68
2022/08/05 00:43:30;;;;;;;4.00;3.10;;;;;;;22.07;64.88;100332.50;5551386;32;33919;-68
2022/08/05 00:46:51;;;;;;;5.65;3.55;;;;;;;22.00;65.64;100324.53;5551574;32;34111;-68
2022/08/05 00:50:07;;;;;;;6.80;3.00;;;;;;;21.94;66.04;100324.66;5550145;32;33491;-67
2022/08/05 00:53:10;;;;;;;4.35;2.85;;;;;;;21.91;66.07;100319.75;5551219;32;34026;-67
2022/08/05 00:56:33;;;;;;;4.82;3.15;;;;;;;21.84;66.47;100329.84;5551029;32;33857;-67
2022/08/05 00:59:36;;;;;;;5.53;3.22;;;;;;;21.78;66.58;100315.47;5551041;32;33925;-67
2022/08/05 01:02:46;;;;;;;3.47;3.10;;;;;;;21.82;67.76;100318.50;5551136;32;33823;-66
2022/08/05 01:05:51;;;;;;;4.47;3.15;;;;;;;21.92;67.14;100318.69;5550998;32;34104;-66
2022/08/05 01:08:56;;;;;;;6.05;3.45;;;;;;;22.03;66.00;100315.09;5551083;32;34082;-67
2022/08/05 01:12:05;;;;;;;3.20;2.72;;;;;;;21.92;66.77;100308.69;5549950;32;32305;-66
2022/08/05 01:15:28;;;;;;;6.20;3.20;;;;;;;21.74;67.51;100317.00;5551060;32;34005;-67
2022/08/05 01:18:42;;;;;;;5.60;3.25;;;;;;;21.69;66.89;100312.31;5550833;32;35301;-67
2022/08/05 01:21:50;;;;;;;8.93;2.95;;;;;;;21.61;67.34;100306.50;5550893;32;34037;-66
2022/08/05 01:25:09;;;;;;;6.00;2.90;;;;;;;21.75;67.18;100310.53;5551294;32;34190;-67
2022/08/05 01:28:26;;;;;;;7.03;2.95;;;;;;;21.65;67.27;100304.94;5551044;32;33960;-68
2022/08/05 01:31:38;;;;;;;4.40;3.17;;;;;;;21.57;67.81;100316.13;5550905;32;33957;-68
2022/08/05 01:34:57;;;;;;;7.18;3.33;;;;;;;21.48;67.65;100304.09;5550812;32;34685;-68
2022/08/05 01:38:03;;;;;;;3.45;2.85;;;;;;;21.42;68.43;100310.44;5550666;32;34802;-67
2022/08/05 01:41:07;;;;;;;4.90;3.33;;;;;;;21.34;68.48;100310.84;5550830;32;33963;-68
2022/08/05 01:44:12;;;;;;;5.25;3.15;;;;;;;21.30;68.79;100306.97;5550188;32;34182;-68
2022/08/05 01:47:19;;;;;;;7.90;2.90;;;;;;;21.25;68.96;100315.78;5550721;32;33955;-68
2022/08/05 01:50:42;;;;;;;5.30;3.22;;;;;;;21.25;68.92;100316.59;5550600;32;34055;-67
2022/08/05 01:53:55;;;;;;;4.75;2.70;;;;;;;21.22;68.67;100318.94;5550728;32;34736;-68
2022/08/05 01:57:04;;;;;;;4.72;2.80;;;;;;;21.19;68.79;100312.16;5550852;32;35258;-68
2022/08/05 02:00:30;;;;;;;3.72;2.60;;;;;;;21.13;68.96;100318.50;5550634;32;34462;-68
2022/08/05 02:03:37;;;;;;;6.30;3.00;;;;;;;21.14;69.17;100313.94;5550501;32;34018;-68
2022/08/05 02:06:41;;;;;;;4.15;3.20;;;;;;;21.09;69.52;100316.50;5550402;32;33941;-68
2022/08/05 02:09:47;;;;;;;4.65;3.08;;;;;;;21.10;69.43;100313.56;5550339;32;34185;-68
2022/08/05 02:13:04;;;;;;;3.87;2.92;;;;;;;21.09;69.67;100320.03;5550007;32;34574;-67
2022/08/05 02:16:48;;;;;;;3.00;2.70;;;;;;;20.99;70.21;100319.81;5549707;32;34655;-68
2022/08/05 02:20:00;;;;;;;3.95;3.17;;;;;;;20.88;70.60;100320.62;5550474;32;34037;-68
2022/08/05 02:23:07;;;;;;;4.50;2.77;;;;;;;20.79;71.17;100322.03;5550444;32;34570;-68
2022/08/05 02:26:14;;;;;;;3.97;2.95;;;;;;;20.76;72.15;100322.53;5550276;32;34678;-68
2022/08/05 02:29:22;;;;;;;6.28;2.85;;;;;;;20.69;72.11;100319.13;5550104;32;34065;-68
2022/08/05 02:32:50;;;;;;;5.22;3.30;;;;;;;20.63;71.98;100320.88;5550230;32;34033;-68
2022/08/05 02:35:55;;;;;;;5.22;3.45;;;;;;;20.57;71.94;100321.84;5550345;32;34033;-67
2022/08/05 02:39:03;;;;;;;;;;;;;;;20.51;71.75;100309.28;5550437;32;33870;-68
2022/08/05 02:42:10;;;;;;;5.53;2.97;;;;;;;20.47;71.51;100313.50;5550084;32;34492;-68
2022/08/05 02:45:28;;;;;;;4.00;2.92;;;;;;;20.42;71.07;100310.69;5550068;32;33909;-68
2022/08/05 02:48:54;;;;;;;3.72;2.97;;;;;;;20.36;71.24;100309.75;5550035;32;35316;-68
2022/08/05 02:51:57;;;;;;;6.15;3.10;;;;;;;20.40;70.26;100315.50;5549944;32;34638;-68
2022/08/05 02:55:08;;;;;;;5.20;3.12;;;;;;;20.37;70.24;100310.56;5548462;32;34273;-68
2022/08/05 02:58:14;;;;;;;6.78;3.87;;;;;;;20.36;70.44;100317.00;5548791;32;32978;-68
2022/08/05 03:01:20;;;;;;;5.07;3.08;;;;;;;20.57;68.35;100312.94;5549641;32;33991;-68
2022/08/05 03:04:24;;;;;;;4.87;3.25;;;;;;;20.49;68.80;100315.94;5549730;32;33864;-68
2022/08/05 03:07:27;;;;;;;4.70;3.08;;;;;;;20.48;68.68;100306.25;5549687;32;33902;-67
2022/08/05 03:10:50;;;;;;;5.05;3.17;;;;;;;20.44;68.47;100308.56;5549546;32;33860;-68
2022/08/05 03:14:13;;;;;;;3.55;2.97;;;;;;;20.33;69.22;100302.13;5549523;32;34185;-68
2022/08/05 03:17:16;;;;;;;4.07;2.90;;;;;;;20.25;69.64;100293.53;5549502;32;35161;-67
2022/08/05 03:20:22;;;;;;;4.85;3.10;;;;;;;20.20;69.77;100298.78;5549438;32;34664;-67
2022/08/05 03:23:27;;;;;;;4.35;3.12;;;;;;;20.12;70.06;100296.44;5549414;32;34605;-68
2022/08/05 03:26:31;;;;;;;5.10;3.03;;;;;;;20.05;70.41;100296.53;5549579;32;35260;-68
2022/08/05 03:29:34;;;;;;;6.47;3.12;;;;;;;20.01;70.62;100292.69;5548971;32;33854;-68
2022/08/05 03:32:58;;;;;;;6.68;3.00;;;;;;;19.96;71.09;100293.38;5548579;32;33917;-68
2022/08/05 03:36:02;;;;;;;3.92;2.90;;;;;;;19.93;71.75;100288.47;5549091;32;34188;-68
2022/08/05 03:39:13;;;;;;;6.18;2.95;;;;;;;19.94;72.08;100290.09;5549104;32;34460;-68
2022/08/05 03:42:28;;;;;;;8.02;3.45;;;;;;;19.94;71.83;100291.97;5548304;32;33929;-68
2022/08/05 03:45:34;;;;;;;5.12;3.33;;;;;;;19.95;71.84;100298.97;5548865;32;34875;-69
2022/08/05 03:48:57;;;;;;;5.15;3.33;;;;;;;19.96;71.81;100292.56;5549021;32;34056;-69
2022/08/05 03:52:07;;;;;;;5.15;3.17;;;;;;;19.96;72.55;100306.00;5548707;32;33874;-68
2022/08/05 03:55:36;;;;;;;4.72;2.92;;;;;;;20.11;72.12;100298.31;5548686;32;34535;-68
2022/08/05 03:59:01;;;;;;;4.78;3.40;;;;;;;20.14;72.25;100300.53;5548161;32;33818;-69
2022/08/05 04:02:05;;;;;;;4.40;2.97;;;;;;;20.15;72.90;100307.56;5548142;32;32401;-69
2022/08/05 04:05:09;;;;;;;5.03;3.03;;;;;;;20.14;72.49;100299.75;5548713;32;34013;-69
2022/08/05 04:08:13;;;;;;;4.75;3.35;;;;;;;20.16;72.55;100305.72;5551449;32;34667;-69
2022/08/05 04:11:37;;;;;;;6.85;3.22;;;;;;;20.23;74.15;100303.75;5551537;32;35163;-67
2022/08/05 04:14:53;;;;;;;8.35;3.15;;;;;;;20.30;72.37;100307.12;5550715;32;32431;-68
2022/08/05 04:18:04;;;;;;;5.45;3.30;;;;;;;20.34;71.86;100303.75;5551432;32;34758;-69
2022/08/05 04:21:08;;;;;;;3.80;3.17;;;;;;;20.56;73.17;100308.59;5551535;32;34071;-69
2022/08/05 04:24:13;;;;;;;4.87;3.42;;;;;;;20.57;72.37;100310.22;5551551;32;33995;-69
2022/08/05 04:27:23;;;;;;;6.30;3.45;;;;;;;20.61;71.45;100314.91;5551174;32;33899;-69
2022/08/05 04:30:45;;;;;;;4.07;3.10;;;;;;;20.67;71.66;100305.88;5539731;32;32366;-69
2022/08/05 04:33:49;;;;;;;4.60;3.50;;;;;;;20.79;70.95;100305.88;5551735;32;33998;-69
2022/08/05 04:37:12;;;;;;;7.32;3.62;;;;;;;20.88;71.61;100306.31;5539878;32;33028;-69
2022/08/05 04:40:15;;;;;;;7.43;3.30;;;;;;;20.92;71.16;100310.19;5551483;32;34068;-69
2022/08/05 04:43:21;;;;;;;4.40;3.33;;;;;;;21.15;68.77;100312.88;5550996;32;33443;-69
2022/08/05 04:46:27;;;;;;;4.90;3.37;;;;;;;21.17;68.78;100310.75;5551241;32;34232;-69
2022/08/05 04:49:30;;;;;;;8.55;3.30;;;;;;;21.28;68.64;100311.78;5551101;32;34231;-69
2022/08/05 04:52:52;;;;;;;4.50;3.47;;;;;;;21.35;68.57;100309.78;5551095;32;34695;-69
2022/08/05 04:55:55;;;;;;;7.07;3.30;;;;;;;21.54;68.93;100312.03;5551151;32;33955;-69
2022/08/05 04:59:19;;;;;;;5.37;3.60;;;;;;;21.51;68.82;100309.81;5550862;32;34593;-69
2022/08/05 05:02:26;;;;;;;4.75;3.50;;;;;;;21.59;69.39;100314.81;5550994;32;34014;-69
2022/08/05 05:05:39;;;;;;;4.95;3.60;;;;;;;21.69;69.18;100314.19;5550805;32;35159;-68
2022/08/05 05:09:02;;;;;;;4.70;3.35;;;;;;;21.74;67.46;100310.75;5550924;32;34547;-69
2022/08/05 05:12:07;;;;;;;6.03;3.17;;;;;;;21.88;66.20;100304.81;5550272;32;34025;-68
2022/08/05 05:15:10;;;;;;;8.27;3.22;;;;;;;22.00;65.86;100304.78;5551140;32;35181;-68
2022/08/05 05:18:19;;;;;;;5.15;3.28;;;;;;;22.14;64.82;100308.00;5550278;32;34085;-67
2022/08/05 05:21:35;;;;;;;4.07;2.95;;;;;;;22.29;64.22;100303.66;5549996;32;34108;-67
2022/08/05 05:24:39;;;;;;;7.47;3.42;;;;;;;22.48;62.46;100305.03;5550754;32;34122;-68
2022/08/05 05:28:00;;;;;;;8.38;3.00;;;;;;;22.60;62.06;100304.97;5549932;32;32555;-68
2022/08/05 05:31:03;;;;;;;12.82;2.90;;;;;;;22.67;61.12;100302.06;5549645;32;32502;-67
2022/08/05 05:34:10;;;;;;;13.88;3.05;;;;;;;22.76;61.51;100306.81;5550317;32;34512;-68
2022/08/05 05:37:13;;;;;;;6.55;2.87;;;;;;;22.93;59.51;100298.69;5549801;32;33904;-67
2022/08/05 05:40:19;;;;;;;3.33;2.50;;;;;;;23.07;58.33;100305.34;5549959;32;33949;-68
2022/08/05 05:43:27;;;;;;;5.80;2.80;;;;;;;23.16;58.03;100298.44;5537291;32;32346;-67
2022/08/05 05:46:50;;;;;;;5.10;2.70;;;;;;;23.30;57.92;100298.84;5550570;32;33964;-68
2022/08/05 05:49:53;;;;;;;6.00;2.58;;;;;;;23.35;58.29;100304.31;5549487;32;33917;-68
2022/08/05 05:53:03;;;;;;;7.55;2.72;;;;;;;23.37;56.73;100303.03;5550095;32;34704;-67
2022/08/05 05:56:29;;;;;;;12.45;2.75;;;;;;;23.34;56.66;100295.38;5549936;32;34584;-67
2022/08/05 05:59:35;;;;;;;4.53;2.72;;;;;;;23.50;55.83;100295.59;5549271;32;33390;-67
2022/08/05 06:02:42;;;;;;;7.65;2.58;;;;;;;23.65;57.96;100299.28;5550466;32;34115;-67
2022/08/05 06:05:45;;;;;;;6.97;2.87;;;;;;;23.86;56.51;100289.47;5549605;32;32814;-68
2022/08/05 06:08:57;;;;;;;6.78;2.72;;;;;;;23.88;55.55;100294.63;5537228;32;33380;-67
2022/08/05 06:12:00;;;;;;;8.90;2.97;;;;;;;23.98;55.10;100290.09;5550566;32;33849;-67
2022/08/05 06:15:05;;;;;;;5.12;2.70;;;;;;;24.11;55.79;100294.25;5549215;32;34292;-66
2022/08/05 06:18:09;;;;;;;8.40;3.92;;;;;;;24.31;55.46;100297.19;5549995;32;34651;-68
2022/08/05 06:21:13;;;;;;;6.45;2.90;;;;;;;24.42;55.18;100296.19;5549409;32;34061;-68
2022/08/05 06:24:20;;;;;;;5.72;3.10;;;;;;;24.62;55.27;100296.31;5536674;32;32483;-67
2022/08/05 06:27:28;;;;;;;9.10;2.95;;;;;;;24.73;54.94;100302.63;5549960;32;33902;-68
2022/08/05 06:30:51;;;;;;;3.97;2.70;;;;;;;24.79;53.04;100293.41;5548661;32;34549;-67
2022/08/05 06:33:54;;;;;;;3.92;2.47;;;;;;;24.90;52.54;100292.44;5549275;32;34812;-68
2022/08/05 06:37:10;;;;;;;5.28;2.70;;;;;;;25.02;51.06;100294.94;5549215;32;33829;-67
2022/08/05 06:40:14;;;;;;;3.72;2.53;;;;;;;25.06;51.88;100296.03;5536440;32;33363;-67
2022/08/05 06:43:23;;;;;;;6.72;3.00;;;;;;;25.25;52.35;100293.66;5549758;32;34134;-67
2022/08/05 06:46:45;;;;;;;3.80;2.72;;;;;;;25.50;49.74;100296.47;5549639;32;34338;-67
2022/08/05 06:49:52;;;;;;;6.68;2.50;;;;;;;25.72;50.01;100296.25;5549781;32;34405;-67
2022/08/05 06:53:03;;;;;;;6.57;2.60;;;;;;;25.93;50.43;100300.63;5549719;32;34610;-67
2022/08/05 06:56:25;;;;;;;17.20;2.65;;;;;;;26.22;46.77;100295.50;5549257;32;34125;-67
2022/08/05 06:59:28;;;;;;;4.10;2.35;;;;;;;26.43;47.60;100299.03;5548853;32;33575;-67
2022/08/05 07:02:46;;;;;;;4.40;2.00;;;;;;;26.72;45.07;100300.84;5549116;32;34336;-67
2022/08/05 07:05:55;;;;;;;4.45;1.87;;;;;;;27.09;40.90;100296.97;5549359;32;33942;-67
2022/08/05 07:08:59;;;;;;;4.47;2.10;;;;;;;27.49;40.89;100294.09;5548471;32;34060;-66
2022/08/05 07:12:06;;;;;;;5.25;2.10;;;;;;;27.76;39.96;100298.28;5549394;32;34048;-67
2022/08/05 07:18:51;;;;;;;3.37;1.80;;;;;;;28.48;38.47;100300.97;5549065;32;33913;-67
2022/08/05 07:21:55;;;;;;;5.47;1.80;;;;;;;29.12;36.41;100294.28;5547850;32;32463;-67
2022/08/05 07:25:03;;;;;;;3.70;1.60;;;;;;;30.13;34.58;100292.03;5548932;32;33843;-67
2022/08/05 07:28:28;;;;;;;6.57;1.87;;;;;;;30.63;33.59;100295.84;5548605;32;34192;-68
2022/08/05 07:31:31;;;;;;;3.60;1.40;;;;;;;31.45;32.57;100291.16;5547898;32;33575;-66
2022/08/05 07:34:54;;;;;;;5.00;2.05;;;;;;;32.29;29.06;100288.59;5548658;32;35240;-64
2022/08/05 07:38:02;;;;;;;2.17;1.40;;;;;;;32.98;29.49;100280.69;5547943;32;34046;-68
2022/08/05 07:41:09;;;;;;;4.37;1.48;;;;;;;33.56;28.92;100280.34;5550495;32;34596;-65
2022/08/05 07:44:31;;;;;;;2.87;1.48;;;;;;;33.92;28.27;100284.75;5550372;32;32446;-68
2022/08/05 07:47:35;;;;;;;1.87;1.30;;;;;;;34.55;27.72;100280.41;5551090;32;33925;-65
2022/08/05 07:50:44;;;;;;;1.48;1.30;;;;;;;34.80;26.88;100280.34;5550685;32;33173;-65
2022/08/05 07:53:47;;;;;;;9.43;2.15;;;;;;;35.06;25.38;100279.38;5551409;32;34642;-66
2022/08/05 07:56:53;;;;;;;12.43;1.55;;;;;;;34.99;26.66;100271.66;5550851;32;34582;-66
2022/08/05 08:00:16;;;;;;;6.62;1.70;;;;;;;35.34;25.08;100276.97;5550453;32;34794;-66
2022/08/05 08:03:19;;;;;;;6.20;1.60;;;;;;;34.63;25.30;100277.63;5551001;32;33913;-66
2022/08/05 08:06:23;;;;;;;2.75;1.40;;;;;;;34.94;24.49;100274.59;5550113;32;32510;-66
2022/08/05 08:09:30;;;;;;;2.30;1.30;;;;;;;35.92;23.60;100285.13;5550167;32;34625;-67
2022/08/05 08:12:32;;;;;;;3.90;1.40;;;;;;;36.61;22.50;100280.84;5537536;32;32731;-66
2022/08/05 08:15:51;;;;;;;4.12;1.60;;;;;;;34.72;24.55;100280.34;5550550;32;33933;-66
2022/08/05 08:19:14;;;;;;;2.35;1.45;;;;;;;35.40;24.08;100272.84;5551089;32;34001;-67
2022/08/05 08:22:36;;;;;;;2.70;1.60;;;;;;;36.53;21.85;100264.00;5551082;32;34050;-66
2022/08/05 08:25:39;;;;;;;5.20;1.62;;;;;;;37.29;21.91;100263.31;5550522;32;32383;-66
2022/08/05 08:29:02;;;;;;;8.40;1.50;;;;;;;37.80;21.81;100277.50;5550968;32;34570;-67
2022/08/05 08:32:25;;;;;;;7.15;1.40;;;;;;;38.03;21.79;100273.03;5550861;32;34195;-66
2022/08/05 08:35:30;;;;;;;4.28;1.30;;;;;;;37.72;22.17;100268.16;5550979;32;34058;-67
2022/08/05 08:38:42;;;;;;;3.25;1.58;;;;;;;37.65;21.46;100269.94;5550151;32;32453;-68
2022/08/05 08:41:56;;;;;;;1.92;1.50;;;;;;;38.46;20.35;100276.94;5551033;32;34601;-66
2022/08/05 08:45:10;;;;;;;3.17;1.60;;;;;;;37.55;21.29;100271.25;5549496;32;33931;-67
2022/08/05 08:48:30;;;;;;;3.83;1.60;;;;;;;38.21;21.26;100262.41;5550829;32;34307;-67
2022/08/05 08:52:12;;;;;;;4.95;1.52;;;;;;;37.96;21.50;100264.47;5550017;32;34063;-66
2022/08/05 08:55:16;;;;;;;3.05;1.67;;;;;;;36.34;22.57;100269.28;5550074;32;34097;-66
2022/08/05 08:58:40;;;;;;;6.97;1.60;;;;;;;38.22;21.19;100262.06;5550901;32;35235;-67
2022/08/05 09:01:51;;;;;;;12.63;1.90;;;;;;;38.94;20.75;100259.12;5550807;32;33947;-67
2022/08/05 09:05:02;;;;;;;6.62;1.87;;;;;;;38.96;22.05;100257.63;5550295;32;34918;-68
2022/08/05 09:08:21;;;;;;;4.80;1.50;;;;;;;38.88;20.84;100255.84;5549710;32;32404;-67
2022/08/05 09:11:31;;;;;;;5.25;1.73;;;;;;;40.09;18.44;100261.22;5550712;32;34341;-68
2022/08/05 09:14:54;;;;;;;5.37;1.62;;;;;;;40.46;18.91;100251.19;5551009;32;34022;-67
2022/08/05 09:18:09;;;;;;;2.67;1.60;;;;;;;39.16;19.82;100258.47;5550505;32;34033;-67
2022/08/05 09:21:15;;;;;;;;;;;;;;;40.45;19.12;100249.59;5550803;32;33901;-68
2022/08/05 09:24:37;;;;;;;3.30;1.42;;;;;;;40.75;18.50;100244.94;5550619;32;34257;-67
2022/08/05 09:27:40;;;;;;;4.20;1.80;;;;;;;39.66;18.76;100242.88;5550176;32;33961;-69
2022/08/05 09:31:04;;;;;;;3.15;1.62;;;;;;;41.70;18.02;100229.94;5549677;32;33113;-68
2022/08/05 09:34:45;;;;;;;5.20;1.62;;;;;;;43.06;15.46;100226.00;5539151;32;33275;-67
2022/08/05 09:37:50;;;;;;;4.72;1.60;;;;;;;42.80;16.50;100223.44;5550487;32;34127;-68
2022/08/05 09:41:13;;;;;;;4.37;1.60;;;;;;;43.36;16.45;100227.78;5550753;32;34405;-68
2022/08/05 09:44:38;;;;;;;6.18;1.70;;;;;;;42.14;16.92;100213.31;5550307;32;34082;-68
2022/08/05 09:47:41;;;;;;;6.07;1.85;;;;;;;43.31;16.22;100218.59;5549550;32;36027;-69
2022/08/05 09:51:07;;;;;;;2.70;1.57;;;;;;;43.06;16.47;100208.44;5549463;32;33105;-69
2022/08/05 09:54:30;;;;;;;4.03;1.40;;;;;;;43.51;17.45;100209.91;5550384;32;34706;-69
2022/08/05 09:57:33;;;;;;;3.50;1.58;;;;;;;43.73;15.35;100214.34;5550518;32;33922;-69
2022/08/05 10:00:52;;;;;;;3.10;1.45;;;;;;;42.94;15.44;100200.44;5537309;32;32974;-67
2022/08/05 10:04:14;;;;;;;5.87;1.98;;;;;;;41.82;16.81;100204.62;5550471;32;35195;-68
2022/08/05 10:07:20;;;;;;;3.87;1.50;;;;;;;40.75;17.69;100191.28;5550227;32;33908;-67
2022/08/05 10:10:43;;;;;;;2.50;1.70;;;;;;;42.20;16.77;100198.62;5550105;32;34399;-67
2022/08/05 10:13:46;;;;;;;2.70;1.60;;;;;;;43.00;16.75;100191.28;5536748;32;32671;-68
2022/08/05 10:16:54;;;;;;;2.15;1.67;;;;;;;44.36;15.28;100193.28;5550015;32;34680;-68
2022/08/05 10:19:57;;;;;;;3.35;1.67;;;;;;;44.51;14.51;100189.28;5549508;32;33888;-68
2022/08/05 10:23:25;;;;;;;2.67;1.73;;;;;;;45.20;14.44;100185.97;5550179;32;33843;-68
2022/08/05 10:26:50;;;;;;;3.70;1.62;;;;;;;42.05;17.07;100174.59;5549468;32;34616;-68
2022/08/05 10:29:54;;;;;;;;;;;;;;;41.88;16.90;100170.47;5544542;32;185246;-69
2022/08/05 10:33:17;;;;;;;5.15;1.55;;;;;;;42.35;16.30;100171.72;5549459;32;34792;-69
2022/08/05 10:36:20;;;;;;;7.97;1.90;;;;;;;45.08;13.68;100169.59;5549299;32;33510;-69
2022/08/05 10:39:30;;;;;;;;;;;;;;;44.90;13.85;100164.84;5549288;32;33953;-68
2022/08/05 10:42:59;;;;;;;5.72;1.48;;;;;;;45.37;13.75;100168.25;5549611;32;34948;-68
2022/08/05 10:46:07;;;;;;;2.80;1.85;;;;;;;47.06;12.48;100162.50;5549829;32;34670;-69
2022/08/05 10:49:12;;;;;;;5.43;1.70;;;;;;;46.40;12.46;100170.38;5549740;32;34649;-68
2022/08/05 10:52:46;;;;;;;2.95;1.70;;;;;;;46.51;12.33;100154.25;5550185;32;34109;-68
2022/08/05 10:56:03;;;;;;;2.10;1.58;;;;;;;46.49;12.46;100154.66;5549760;32;33970;-69
2022/08/05 10:59:29;;;;;;;6.40;1.87;;;;;;;47.46;12.30;100161.56;5549045;32;33165;-69
2022/08/05 11:03:04;;;;;;;2.47;1.90;;;;;;;46.59;13.22;100150.16;5549657;32;34579;-68
2022/08/05 11:06:27;;;;;;;4.53;1.60;;;;;;;46.16;13.07;100150.56;5548672;32;34559;-68
2022/08/05 11:09:42;;;;;;;2.03;1.43;;;;;;;46.25;12.77;100136.84;5549720;32;33957;-68
2022/08/05 11:12:48;;;;;;;5.15;1.52;;;;;;;46.75;11.75;100153.19;5548764;32;32411;-69
2022/08/05 11:16:20;;;;;;;5.85;1.85;;;;;;;48.01;10.89;100140.69;5550830;32;34410;-69
2022/08/05 11:19:27;;;;;;;4.20;1.70;;;;;;;48.96;10.97;100135.28;5551906;32;34005;-69
2022/08/05 11:22:51;;;;;;;2.62;1.33;;;;;;;48.38;10.66;100136.03;5551906;32;33918;-68
2022/08/05 11:26:07;;;;;;;5.30;1.98;;;;;;;47.85;10.85;100130.06;5552369;32;35213;-68
2022/08/05 11:29:36;;;;;;;7.03;1.83;;;;;;;46.74;12.10;100125.53;5551595;32;34683;-67
2022/08/05 11:32:38;;;;;;;2.95;1.48;;;;;;;47.18;12.39;100131.03;5550899;32;32516;-67
2022/08/05 11:35:55;;;;;;;3.35;1.50;;;;;;;48.29;11.57;100128.91;5551484;32;33980;-67
2022/08/05 11:39:13;;;;;;;4.10;1.73;;;;;;;49.75;10.22;100123.09;5551684;32;34540;-67
2022/08/05 11:42:23;;;;;;;4.25;1.80;;;;;;;47.71;12.18;100130.28;5550684;32;32535;-67
2022/08/05 11:45:29;;;;;;;4.50;1.55;;;;;;;47.08;12.28;100124.34;5550653;32;33275;-68
2022/08/05 11:48:53;;;;;;;1.65;1.55;;;;;;;48.92;11.11;100117.66;5551378;32;34341;-67
2022/08/05 11:51:56;;;;;;;7.50;1.75;;;;;;;49.00;11.04;100115.47;5551592;32;33925;-67
2022/08/05 11:55:00;;;;;;;2.03;1.50;;;;;;;50.44;9.82;100119.72;5551058;32;32844;-68
2022/08/05 11:58:09;;;;;;;2.62;1.70;;;;;;;50.05;9.72;100114.25;5551792;32;33920;-68
2022/08/05 12:01:16;;;;;;;5.28;1.62;;;;;;;51.14;9.58;100123.75;5551478;32;35292;-69
2022/08/05 12:04:21;;;;;;;4.50;1.67;;;;;;;51.55;9.61;100120.88;5551580;32;34142;-68
2022/08/05 12:07:33;;;;;;;3.72;1.70;;;;;;;52.02;9.15;100120.91;5551730;32;34719;-68
2022/08/05 12:10:59;;;;;;;2.25;1.70;;;;;;;50.49;10.17;100126.03;5550895;32;33008;-67
2022/08/05 12:14:07;;;;;;;4.35;1.60;;;;;;;49.60;10.33;100106.50;5537745;32;33690;-67
2022/08/05 12:17:14;;;;;;;3.58;1.60;;;;;;;47.73;11.12;100104.56;5551598;32;34720;-69
2022/08/05 12:20:37;;;;;;;2.90;1.67;;;;;;;48.63;11.21;100102.56;5551174;32;34219;-68
2022/08/05 12:24:10;;;;;;;6.80;1.80;;;;;;;46.95;12.32;100094.44;5550669;32;32958;-68
2022/08/05 12:27:28;;;;;;;8.85;2.12;;;;;;;48.32;11.11;100107.53;5549623;32;34115;-69
2022/08/05 12:30:37;;;;;;;3.83;1.70;;;;;;;48.80;10.41;100092.19;5551132;32;35903;-68
2022/08/05 12:33:49;;;;;;;4.30;1.58;;;;;;;47.79;11.17;100094.41;5550572;32;33976;-68
2022/08/05 12:36:57;;;;;;;7.50;1.62;;;;;;;47.83;11.18;100092.34;5551396;32;33907;-68
2022/08/05 12:40:01;;;;;;;4.80;1.60;;;;;;;47.86;10.94;100095.09;5550482;32;33135;-68
2022/08/05 12:43:06;;;;;;;2.75;1.73;;;;;;;49.55;10.77;100095.75;5551016;32;34724;-68
2022/08/05 12:46:20;;;;;;;2.70;1.80;;;;;;;52.53;8.04;100092.47;5551154;32;34600;-68
2022/08/05 12:49:50;;;;;;;2.42;1.62;;;;;;;51.43;8.62;100096.16;5551185;32;34319;-69
2022/08/05 12:53:15;;;;;;;5.45;2.20;;;;;;;52.80;8.63;100092.66;5550881;32;34269;-68
2022/08/05 12:56:22;;;;;;;2.62;1.60;;;;;;;51.61;8.35;100087.91;5551218;32;34359;-68
2022/08/05 12:59:48;;;;;;;8.75;1.67;;;;;;;50.26;9.13;100082.66;5550979;32;34774;-67
2022/08/05 13:03:11;;;;;;;1.92;1.67;;;;;;;51.59;8.62;100078.31;5550437;32;34663;-68
2022/08/05 13:06:16;;;;;;;6.95;1.80;;;;;;;52.35;8.23;100076.06;5550345;32;33658;-68
2022/08/05 13:09:22;;;;;;;3.10;1.70;;;;;;;53.28;7.93;100062.03;5550877;32;34716;-68
2022/08/05 13:12:30;;;;;;;2.80;1.77;;;;;;;50.52;9.11;100069.47;5550834;32;33948;-68
2022/08/05 13:15:33;;;;;;;2.30;1.70;;;;;;;49.31;9.67;100054.81;5551245;32;33958;-67
2022/08/05 13:18:55;;;;;;;3.40;1.70;;;;;;;50.48;9.00;100056.69;5550167;32;34556;-67
2022/08/05 13:22:00;;;;;;;1.70;1.33;;;;;;;51.84;8.60;100055.66;5550198;32;34613;-68
2022/08/05 13:25:06;;;;;;;5.07;1.60;;;;;;;54.01;7.54;100045.16;5549606;32;34153;-68
2022/08/05 13:28:21;;;;;;;3.40;1.52;;;;;;;53.36;7.62;100044.25;5550542;32;34014;-69
2022/08/05 13:31:24;;;;;;;6.20;1.60;;;;;;;50.18;8.93;100033.31;5551045;32;34076;-69
2022/08/05 13:34:48;;;;;;;3.92;1.50;;;;;;;49.56;9.09;100029.66;5550283;32;34577;-69
2022/08/05 13:37:51;;;;;;;2.85;1.48;;;;;;;50.82;8.33;100029.44;5549523;32;32445;-69
2022/08/05 13:40:58;;;;;;;5.05;1.50;;;;;;;51.32;8.30;100027.91;5550406;32;34002;-68
2022/08/05 13:44:02;;;;;;;2.75;1.52;;;;;;;50.90;8.27;100018.72;5549270;32;33467;-68
2022/08/05 13:47:05;;;;;;;2.72;1.40;;;;;;;50.19;9.18;100017.16;5550515;32;33855;-68
2022/08/05 13:50:11;;;;;;;2.90;1.50;;;;;;;51.14;8.12;100011.50;5549082;32;32334;-68
2022/08/05 13:53:18;;;;;;;3.47;1.80;;;;;;;52.85;7.57;100015.53;5549789;32;33886;-68
2022/08/05 13:56:21;;;;;;;4.95;1.58;;;;;;;54.10;6.89;100009.06;5550202;32;34316;-68
2022/08/05 13:59:25;;;;;;;4.18;1.67;;;;;;;51.39;8.19;100005.03;5549605;32;34032;-68
2022/08/05 14:02:29;;;;;;;4.07;1.70;;;;;;;52.11;8.35;100012.66;5550576;32;35288;-68
2022/08/05 14:05:35;;;;;;;2.25;1.55;;;;;;;53.46;7.73;100005.38;5549622;32;33977;-69
2022/08/05 14:08:58;;;;;;;2.37;1.45;;;;;;;54.51;6.73;100001.16;5549561;32;34814;-66
2022/08/05 14:12:01;;;;;;;3.03;1.52;;;;;;;52.19;7.82;99994.19;5550145;32;34599;-68
2022/08/05 14:15:19;;;;;;;2.92;1.55;;;;;;;52.78;8.15;99990.31;5548931;32;33443;-68
2022/08/05 14:18:42;;;;;;;6.85;2.10;;;;;;;51.08;8.81;99993.50;5549976;32;33905;-68
2022/08/05 14:21:45;;;;;;;10.85;1.92;;;;;;;50.72;9.00;99984.53;5549388;32;32839;-68
2022/08/05 14:25:08;;;;;;;4.12;1.60;;;;;;;48.87;9.97;99980.16;5549364;32;33454;-68
2022/08/05 14:28:23;;;;;;;6.40;1.70;;;;;;;47.61;10.70;99978.63;5549376;32;34751;-68
2022/08/05 14:31:30;;;;;;;3.45;1.80;;;;;;;47.36;10.86;99974.22;5549670;32;34618;-67
2022/08/05 14:34:53;;;;;;;3.87;1.83;;;;;;;43.04;13.65;99965.97;5549468;32;34129;-67
2022/08/05 14:37:58;;;;;;;1.85;1.45;;;;;;;40.41;16.21;99962.34;5549118;32;33446;-68
2022/08/05 14:41:04;;;;;;;4.78;1.85;;;;;;;40.25;16.64;99964.53;5549615;32;34030;-68
2022/08/05 14:44:09;;;;;;;5.40;1.77;;;;;;;39.14;17.62;99961.13;5536388;32;32637;-67
2022/08/05 14:47:23;;;;;;;6.90;1.83;;;;;;;38.70;18.19;99958.69;5549408;32;33890;-68
2022/08/05 14:50:46;;;;;;;7.28;1.70;;;;;;;38.14;18.35;99954.72;5547941;32;32311;-67
2022/08/05 14:53:51;;;;;;;2.45;1.62;;;;;;;37.87;18.24;99950.91;5548699;32;34165;-67
2022/08/05 14:57:13;;;;;;;10.60;2.33;;;;;;;37.79;18.80;99949.94;5549422;32;33963;-68
2022/08/05 15:00:16;;;;;;;2.62;1.65;;;;;;;37.86;19.45;99947.31;5549168;32;34335;-65